createdAt,value
2023-09-07T00:00:18.166Z,16.58
2023-09-07T00:02:45.452Z,17.75
2023-09-07T00:05:14.473Z,19.05
2023-09-07T00:07:41.610Z,17.25
2023-09-07T00:10:09.102Z,17.70
2023-09-07T00:12:36.120Z,16.13
2023-09-07T00:15:04.341Z,16.48
2023-09-07T00:17:31.284Z,18.13
2023-09-07T00:19:59.300Z,16.40
2023-09-07T00:22:26.956Z,17.02
2023-09-07T00:24:54.013Z,16.73
2023-09-07T00:27:21.016Z,17.63
2023-09-07T00:29:48.250Z,17.45
2023-09-07T00:32:15.214Z,18.27
2023-09-07T00:34:42.278Z,15.32
2023-09-07T00:37:09.427Z,18.17
2023-09-07T00:39:36.353Z,15.85
2023-09-07T00:42:03.586Z,18.20
2023-09-07T00:44:30.577Z,15.68
2023-09-07T00:47:01.164Z,17.90
2023-09-07T00:49:28.564Z,17.00
2023-09-07T00:51:56.188Z,16.30
2023-09-07T00:54:23.224Z,18.85
2023-09-07T00:56:50.225Z,14.90
2023-09-07T00:59:17.236Z,15.65
2023-09-07T01:01:44.434Z,16.92
2023-09-07T01:04:12.828Z,16.42
2023-09-07T01:06:50.850Z,17.58
2023-09-07T01:09:25.707Z,18.38
2023-09-07T01:11:54.038Z,17.40
2023-09-07T01:14:21.125Z,15.52
2023-09-07T01:16:48.474Z,17.08
2023-09-07T01:19:15.655Z,18.27
2023-09-07T01:21:42.918Z,17.55
2023-09-07T01:24:11.729Z,21.25
2023-09-07T01:26:43.617Z,17.58
2023-09-07T01:29:11.203Z,17.50
2023-09-07T01:31:39.490Z,17.30
2023-09-07T01:34:10.087Z,20.17
2023-09-07T01:36:37.438Z,18.35
2023-09-07T01:39:09.579Z,19.23
2023-09-07T01:41:37.028Z,17.35
2023-09-07T01:44:04.697Z,17.42
2023-09-07T01:46:32.197Z,18.45
2023-09-07T01:48:59.695Z,19.60
2023-09-07T01:51:29.267Z,21.70
2023-09-07T01:53:57.145Z,20.80
2023-09-07T01:56:28.920Z,20.75
2023-09-07T01:58:56.413Z,21.43
2023-09-07T02:01:31.333Z,23.02
2023-09-07T02:03:58.771Z,18.92
2023-09-07T02:06:26.155Z,21.50
2023-09-07T02:08:53.583Z,21.30
2023-09-07T02:11:20.958Z,20.90
2023-09-07T02:13:49.128Z,19.88
2023-09-07T02:16:16.751Z,21.67
2023-09-07T02:18:46.842Z,21.90
2023-09-07T02:21:14.609Z,20.83
2023-09-07T02:23:42.233Z,21.23
2023-09-07T02:26:09.655Z,24.27
2023-09-07T02:28:37.056Z,25.02
2023-09-07T02:31:05.671Z,24.52
2023-09-07T02:33:34.642Z,22.75
2023-09-07T02:36:03.899Z,21.45
2023-09-07T02:38:31.715Z,20.13
2023-09-07T02:40:59.557Z,21.50
2023-09-07T02:43:27.018Z,19.90
2023-09-07T02:45:55.286Z,22.25
2023-09-07T02:48:22.819Z,23.52
2023-09-07T02:50:51.809Z,23.52
2023-09-07T02:53:19.642Z,23.38
2023-09-07T02:55:47.043Z,22.20
2023-09-07T02:58:14.605Z,22.25
2023-09-07T03:00:46.027Z,21.25
2023-09-07T03:03:14.406Z,23.30
2023-09-07T03:05:43.105Z,21.98
2023-09-07T03:08:10.679Z,26.88
2023-09-07T03:10:41.149Z,24.30
2023-09-07T03:13:11.994Z,27.10
2023-09-07T03:15:40.121Z,22.73
2023-09-07T03:18:07.507Z,21.92
2023-09-07T03:20:35.712Z,24.77
2023-09-07T03:23:03.620Z,23.38
2023-09-07T03:25:31.489Z,22.90
2023-09-07T03:27:58.945Z,22.75
2023-09-07T03:30:26.395Z,22.67
2023-09-07T03:32:54.010Z,24.02
2023-09-07T03:35:21.607Z,24.58
2023-09-07T03:37:49.017Z,24.05
2023-09-07T03:40:16.457Z,25.63
2023-09-07T03:42:46.674Z,23.60
2023-09-07T03:45:14.325Z,24.52
2023-09-07T03:47:42.752Z,24.10
2023-09-07T03:50:10.816Z,24.33
2023-09-07T03:52:38.413Z,23.75
2023-09-07T03:55:06.565Z,25.92
2023-09-07T03:57:34.192Z,24.35
2023-09-07T04:00:02.279Z,24.42
2023-09-07T04:02:29.789Z,25.80
2023-09-07T04:04:57.484Z,26.00
2023-09-07T04:07:25.524Z,25.08
2023-09-07T04:09:53.107Z,26.10
2023-09-07T04:12:20.469Z,26.30
2023-09-07T04:14:48.444Z,28.70
2023-09-07T04:17:15.924Z,25.73
2023-09-07T04:19:44.548Z,24.90
2023-09-07T04:22:13.296Z,25.75
2023-09-07T04:24:40.795Z,25.45
2023-09-07T04:27:08.533Z,26.27
2023-09-07T04:29:35.900Z,24.50
2023-09-07T04:32:03.438Z,27.15
2023-09-07T04:34:30.794Z,25.63
2023-09-07T04:37:01.290Z,24.52
2023-09-07T04:39:29.678Z,27.88
2023-09-07T04:41:57.218Z,29.83
2023-09-07T04:44:24.616Z,26.35
2023-09-07T04:46:53.764Z,27.13
2023-09-07T04:49:21.615Z,26.42
2023-09-07T04:51:49.083Z,29.33
2023-09-07T04:54:17.312Z,29.08
2023-09-07T04:56:44.789Z,29.67
2023-09-07T04:59:12.212Z,30.85
2023-09-07T05:01:39.736Z,29.17
2023-09-07T05:04:07.311Z,30.95
2023-09-07T05:06:38.014Z,30.85
2023-09-07T05:09:05.711Z,27.02
2023-09-07T05:11:36.007Z,27.73
2023-09-07T05:14:03.990Z,29.80
2023-09-07T05:16:31.349Z,26.92
2023-09-07T05:18:58.761Z,27.95
2023-09-07T05:21:26.304Z,27.52
2023-09-07T05:23:53.732Z,30.88
2023-09-07T05:26:27.111Z,28.52
2023-09-07T05:28:54.777Z,28.63
2023-09-07T05:31:22.278Z,32.10
2023-09-07T05:33:49.757Z,26.10
2023-09-07T05:36:17.199Z,26.55
2023-09-07T05:38:44.656Z,26.98
2023-09-07T05:41:12.077Z,24.55
2023-09-07T05:43:39.423Z,24.20
2023-09-07T05:46:06.925Z,22.95
2023-09-07T05:48:34.443Z,23.38
2023-09-07T05:51:02.106Z,22.63
2023-09-07T05:53:29.948Z,23.63
2023-09-07T05:55:57.290Z,22.67
2023-09-07T05:58:24.595Z,25.20
2023-09-07T06:00:51.991Z,28.23
2023-09-07T06:03:19.702Z,25.00
2023-09-07T06:05:48.365Z,25.58
2023-09-07T06:08:15.793Z,25.40
2023-09-07T06:10:43.229Z,23.05
2023-09-07T06:13:11.099Z,21.95
2023-09-07T06:15:39.016Z,24.27
2023-09-07T06:18:06.528Z,23.55
2023-09-07T06:20:33.496Z,23.60
2023-09-07T06:23:00.459Z,23.45
2023-09-07T06:25:28.430Z,21.48
2023-09-07T06:27:55.406Z,21.15
2023-09-07T06:30:23.413Z,19.67
2023-09-07T06:32:52.291Z,21.23
2023-09-07T06:35:19.739Z,19.98
2023-09-07T06:37:46.823Z,20.50
2023-09-07T06:40:14.685Z,15.82
2023-09-07T06:42:41.630Z,14.98
2023-09-07T06:45:09.620Z,15.38
2023-09-07T06:47:36.689Z,19.05
2023-09-07T06:50:04.796Z,14.82
2023-09-07T06:52:32.044Z,18.15
2023-09-07T06:54:59.022Z,18.52
2023-09-07T06:57:26.047Z,16.40
2023-09-07T06:59:53.053Z,17.67
2023-09-07T07:02:20.073Z,18.20
2023-09-07T07:04:47.564Z,15.77
2023-09-07T07:07:14.832Z,13.05
2023-09-07T07:09:41.900Z,13.75
2023-09-07T07:12:08.819Z,11.57
2023-09-07T07:14:39.096Z,14.20
2023-09-07T07:17:06.332Z,16.90
2023-09-07T07:19:35.858Z,11.05
2023-09-07T07:22:03.618Z,10.30
2023-09-07T07:24:30.562Z,11.50
2023-09-07T07:26:57.433Z,15.02
2023-09-07T07:29:24.554Z,9.75
2023-09-07T07:31:51.561Z,11.32
2023-09-07T07:34:19.909Z,10.43
2023-09-07T07:36:46.857Z,13.40
2023-09-07T07:39:13.778Z,10.77
2023-09-07T07:41:42.811Z,14.57
2023-09-07T07:44:10.919Z,14.52
2023-09-07T07:46:38.062Z,14.10
2023-09-07T07:49:05.890Z,11.23
2023-09-07T07:51:33.272Z,10.73
2023-09-07T07:54:00.607Z,11.05
2023-09-07T07:56:27.752Z,11.95
2023-09-07T07:58:55.046Z,12.38
2023-09-07T08:01:22.663Z,10.32
2023-09-07T08:03:49.901Z,10.45
2023-09-07T08:06:17.261Z,12.13
2023-09-07T08:08:44.172Z,11.68
2023-09-07T08:11:12.672Z,13.73
2023-09-07T08:13:40.993Z,14.50
2023-09-07T08:16:08.168Z,11.80
2023-09-07T08:18:36.690Z,13.88
2023-09-07T08:21:04.209Z,11.93
2023-09-07T08:23:31.082Z,13.15
2023-09-07T08:25:58.197Z,10.73
2023-09-07T08:28:26.671Z,13.18
2023-09-07T08:30:56.528Z,11.48
2023-09-07T08:33:30.293Z,10.15
2023-09-07T08:35:58.625Z,10.65
2023-09-07T08:38:29.540Z,12.73
2023-09-07T08:40:57.126Z,14.02
2023-09-07T08:43:24.819Z,13.02
2023-09-07T08:46:13.330Z,13.80
2023-09-07T08:48:43.364Z,13.70
2023-09-07T08:51:14.431Z,13.32
2023-09-07T08:53:42.330Z,12.07
2023-09-07T08:56:12.470Z,11.10
2023-09-07T08:58:41.276Z,9.70
2023-09-07T09:01:09.650Z,13.73
2023-09-07T09:03:38.321Z,9.88
2023-09-07T09:06:09.178Z,15.82
2023-09-07T09:08:56.999Z,13.07
2023-09-07T09:11:27.269Z,16.23
2023-09-07T09:13:55.563Z,12.85
2023-09-07T09:16:22.809Z,11.15
2023-09-07T09:18:58.441Z,12.77
2023-09-07T09:21:27.298Z,13.20
2023-09-07T09:23:57.660Z,11.32
2023-09-07T09:26:25.801Z,14.43
2023-09-07T09:28:57.358Z,9.70
2023-09-07T09:31:25.981Z,11.70
2023-09-07T09:33:53.788Z,11.88
2023-09-07T09:36:22.005Z,12.23
2023-09-07T09:38:51.846Z,12.10
2023-09-07T09:41:19.155Z,11.70
2023-09-07T09:43:50.395Z,9.43
2023-09-07T09:46:18.501Z,13.38
2023-09-07T09:48:46.057Z,9.07
2023-09-07T09:51:15.619Z,11.90
2023-09-07T09:53:44.162Z,9.57
2023-09-07T09:56:11.570Z,9.25
2023-09-07T09:58:38.922Z,14.35
2023-09-07T10:01:09.197Z,10.68
2023-09-07T10:03:47.161Z,13.77
2023-09-07T10:06:31.195Z,8.35
2023-09-07T10:09:07.791Z,7.97
2023-09-07T10:11:41.084Z,6.75
2023-09-07T10:14:09.254Z,8.27
2023-09-07T10:16:50.944Z,9.00
2023-09-07T10:19:23.808Z,7.18
2023-09-07T10:21:54.819Z,9.40
2023-09-07T10:24:48.004Z,7.72
2023-09-07T10:27:14.928Z,6.38
2023-09-07T10:30:11.038Z,8.35
2023-09-07T10:32:44.645Z,6.28
2023-09-07T10:35:23.082Z,4.93
2023-09-07T10:37:50.186Z,7.75
2023-09-07T10:40:29.618Z,6.63
2023-09-07T10:43:04.951Z,8.05
2023-09-07T10:45:31.939Z,7.28
2023-09-07T10:47:58.994Z,5.38
2023-09-07T10:50:26.004Z,5.82
2023-09-07T10:52:52.897Z,9.15
2023-09-07T10:55:19.873Z,8.25
2023-09-07T10:57:49.104Z,7.05
2023-09-07T11:00:16.934Z,7.95
2023-09-07T11:02:44.962Z,6.75
2023-09-07T11:05:21.876Z,7.70
2023-09-07T11:07:48.949Z,5.53
2023-09-07T11:10:16.419Z,9.73
2023-09-07T11:12:48.898Z,8.70
2023-09-07T11:15:19.812Z,7.85
2023-09-07T11:17:53.692Z,9.70
2023-09-07T11:20:24.150Z,5.57
2023-09-07T11:23:05.257Z,8.73
2023-09-07T11:25:37.962Z,7.07
2023-09-07T11:28:08.253Z,6.72
2023-09-07T11:30:35.710Z,8.43
2023-09-07T11:33:08.515Z,9.10
2023-09-07T11:35:35.788Z,7.15
2023-09-07T11:38:07.965Z,6.43
2023-09-07T11:40:44.054Z,5.13
2023-09-07T11:43:14.629Z,5.72
2023-09-07T11:45:47.406Z,6.82
2023-09-07T11:48:14.816Z,6.07
2023-09-07T11:50:41.934Z,7.03
2023-09-07T11:53:09.168Z,6.13
2023-09-07T11:55:36.792Z,6.38
2023-09-07T11:58:06.154Z,8.88
2023-09-07T12:00:33.419Z,5.97
2023-09-07T12:03:00.878Z,6.95
2023-09-07T12:05:29.183Z,6.65
2023-09-07T12:07:56.282Z,6.45
2023-09-07T12:10:23.361Z,4.78
2023-09-07T12:12:50.442Z,7.55
2023-09-07T12:15:17.434Z,5.05
2023-09-07T12:17:46.891Z,4.80
2023-09-07T12:20:15.541Z,9.88
2023-09-07T12:22:42.612Z,4.45
2023-09-07T12:25:15.542Z,5.07
2023-09-07T12:27:54.163Z,6.80
2023-09-07T12:30:25.015Z,8.00
2023-09-07T12:32:53.392Z,6.10
2023-09-07T12:35:21.535Z,6.68
2023-09-07T12:37:48.709Z,5.65
2023-09-07T12:40:16.102Z,5.20
2023-09-07T12:42:45.902Z,5.25
2023-09-07T12:45:15.374Z,7.72
2023-09-07T12:47:42.819Z,7.20
2023-09-07T12:50:09.986Z,7.22
2023-09-07T12:52:40.051Z,6.07
2023-09-07T12:55:10.888Z,9.80
2023-09-07T12:57:38.519Z,6.57
2023-09-07T13:00:07.328Z,7.60
2023-09-07T13:02:34.454Z,5.32
2023-09-07T13:05:01.437Z,5.30
2023-09-07T13:07:28.350Z,6.63
2023-09-07T13:09:56.384Z,7.05
2023-09-07T13:12:23.400Z,8.02
2023-09-07T13:14:50.428Z,5.25
2023-09-07T13:17:17.450Z,7.05
2023-09-07T13:19:45.115Z,4.70
2023-09-07T13:22:12.360Z,5.82
2023-09-07T13:24:39.535Z,6.20
2023-09-07T13:27:06.957Z,8.32
2023-09-07T13:29:34.520Z,8.60
2023-09-07T13:32:01.714Z,7.88
2023-09-07T13:34:29.295Z,8.27
2023-09-07T13:36:57.148Z,4.60
2023-09-07T13:39:24.627Z,6.35
2023-09-07T13:41:51.596Z,5.53
2023-09-07T13:44:19.020Z,4.57
2023-09-07T13:46:46.328Z,6.78
2023-09-07T13:49:13.620Z,5.38
2023-09-07T13:51:44.040Z,6.93
2023-09-07T13:54:11.315Z,4.85
2023-09-07T13:56:38.675Z,8.25
2023-09-07T13:59:05.916Z,6.90
2023-09-07T14:01:33.439Z,5.10
2023-09-07T14:04:01.197Z,5.25
2023-09-07T14:06:28.293Z,7.57
2023-09-07T14:08:55.326Z,5.10
2023-09-07T14:11:23.810Z,7.20
2023-09-07T14:13:55.670Z,9.98
2023-09-07T14:18:51.286Z,9.27
2023-09-07T14:21:19.043Z,6.90
2023-09-07T14:23:46.728Z,5.60
2023-09-07T14:26:14.142Z,5.30
2023-09-07T14:28:41.635Z,8.00
2023-09-07T14:31:09.251Z,4.65
2023-09-07T14:33:40.237Z,8.48
2023-09-07T14:36:08.138Z,10.00
2023-09-07T14:38:43.049Z,4.65
2023-09-07T14:41:19.831Z,5.03
2023-09-07T14:43:48.657Z,6.18
2023-09-07T14:46:16.816Z,5.28
2023-09-07T14:48:45.243Z,5.32
2023-09-07T14:51:13.695Z,8.27
2023-09-07T14:53:40.872Z,7.47
2023-09-07T14:56:08.031Z,5.25
2023-09-07T14:58:35.227Z,4.90
2023-09-07T15:01:02.533Z,4.63
2023-09-07T15:03:29.458Z,4.93
2023-09-07T15:05:56.763Z,8.80
2023-09-07T15:08:24.008Z,5.68
2023-09-07T15:10:51.450Z,8.55
2023-09-07T15:13:18.742Z,8.82
2023-09-07T15:15:45.910Z,5.47
2023-09-07T15:18:12.936Z,5.93
2023-09-07T15:20:40.126Z,9.27
2023-09-07T15:23:07.170Z,6.97
2023-09-07T15:25:34.187Z,4.70
2023-09-07T15:28:01.354Z,11.15
2023-09-07T15:30:28.366Z,6.78
2023-09-07T15:32:55.419Z,5.47
2023-09-07T15:35:23.134Z,6.38
2023-09-07T15:37:50.308Z,9.00
2023-09-07T15:40:17.356Z,8.95
2023-09-07T15:42:44.314Z,5.68
2023-09-07T15:45:11.619Z,5.68
2023-09-07T15:47:39.214Z,6.18
2023-09-07T15:50:08.555Z,9.88
2023-09-07T15:52:49.681Z,5.55
2023-09-07T15:55:19.313Z,5.18
2023-09-07T15:57:48.808Z,10.65
2023-09-07T16:00:17.156Z,5.95
2023-09-07T16:02:46.241Z,5.35
2023-09-07T16:05:13.525Z,7.38
2023-09-07T16:07:40.579Z,5.60
2023-09-07T16:10:08.255Z,8.40
2023-09-07T16:12:35.239Z,5.70
2023-09-07T16:15:02.234Z,4.65
2023-09-07T16:17:29.262Z,5.05
2023-09-07T16:19:57.410Z,5.00
2023-09-07T16:22:24.471Z,6.40
2023-09-07T16:24:51.426Z,6.18
2023-09-07T16:27:18.596Z,8.73
2023-09-07T16:29:46.751Z,7.78
2023-09-07T16:32:15.506Z,6.38
2023-09-07T16:34:44.522Z,10.63
2023-09-07T16:37:11.477Z,7.80
2023-09-07T16:39:38.479Z,5.50
2023-09-07T16:42:05.801Z,5.95
2023-09-07T16:44:32.762Z,6.22
2023-09-07T16:46:59.682Z,5.88
2023-09-07T16:49:26.738Z,5.32
2023-09-07T16:51:53.908Z,5.50
2023-09-07T16:54:21.007Z,9.93
2023-09-07T16:59:55.464Z,7.30
2023-09-07T17:02:17.199Z,6.15
2023-09-07T17:04:46.022Z,6.40
2023-09-07T17:07:13.022Z,6.15
2023-09-07T17:09:41.653Z,5.57
2023-09-07T17:15:03.326Z,8.15
2023-09-07T17:17:35.836Z,7.95
2023-09-07T17:20:04.676Z,9.27
2023-09-07T17:22:32.275Z,6.32
2023-09-07T17:24:59.201Z,7.00
2023-09-07T17:27:26.733Z,6.18
2023-09-07T17:29:54.016Z,5.68
2023-09-07T17:32:21.809Z,8.38
2023-09-07T17:34:49.972Z,7.28
2023-09-07T17:37:16.868Z,5.32
2023-09-07T17:39:44.035Z,9.23
2023-09-07T17:42:11.015Z,7.72
2023-09-07T17:44:40.525Z,6.90
2023-09-07T17:47:15.991Z,7.95
2023-09-07T17:49:43.203Z,8.27
2023-09-07T17:52:10.407Z,12.55
2023-09-07T17:54:38.047Z,9.82
2023-09-07T17:57:05.688Z,7.38
2023-09-07T17:59:32.664Z,5.72
2023-09-07T18:02:06.999Z,8.32
2023-09-07T18:04:34.140Z,9.23
2023-09-07T18:07:04.355Z,8.75
2023-09-07T18:09:32.084Z,8.05
2023-09-07T18:11:59.257Z,10.93
2023-09-07T18:14:26.784Z,6.35
2023-09-07T18:16:55.418Z,7.57
2023-09-07T18:19:22.543Z,9.07
2023-09-07T18:21:53.735Z,8.43
2023-09-07T18:24:21.314Z,10.00
2023-09-07T18:26:55.005Z,11.18
2023-09-07T18:29:22.427Z,8.35
2023-09-07T18:31:49.491Z,9.38
2023-09-07T18:34:16.879Z,12.93
2023-09-07T18:36:45.070Z,11.38
2023-09-07T18:39:12.399Z,12.02
2023-09-07T18:41:39.299Z,14.55
2023-09-07T18:44:09.051Z,10.15
2023-09-07T18:46:36.684Z,10.10
2023-09-07T18:49:08.740Z,10.45
2023-09-07T18:51:35.790Z,11.73
2023-09-07T18:54:02.784Z,9.23
2023-09-07T18:56:29.848Z,12.07
2023-09-07T18:58:57.203Z,12.32
2023-09-07T19:01:26.255Z,12.32
2023-09-07T19:04:07.230Z,13.07
2023-09-07T19:06:35.325Z,10.80
2023-09-07T19:09:02.319Z,11.40
2023-09-07T19:11:29.343Z,12.45
2023-09-07T19:13:56.439Z,12.15
2023-09-07T19:16:25.377Z,14.00
2023-09-07T19:19:16.793Z,11.45
2023-09-07T19:21:43.804Z,13.45
2023-09-07T19:24:18.230Z,12.57
2023-09-07T19:26:46.450Z,13.05
2023-09-07T19:29:17.256Z,10.25
2023-09-07T19:31:45.762Z,11.95
2023-09-07T19:34:14.353Z,15.35
2023-09-07T19:36:52.690Z,13.20
2023-09-07T19:39:22.452Z,11.90
2023-09-07T19:41:51.548Z,11.27
2023-09-07T19:44:19.397Z,14.30
2023-09-07T19:46:46.951Z,13.85
2023-09-07T19:49:15.480Z,16.88
2023-09-07T19:51:42.585Z,15.18
2023-09-07T19:54:09.845Z,13.07
2023-09-07T19:56:36.911Z,16.08
2023-09-07T19:59:03.851Z,18.13
2023-09-07T20:01:30.861Z,16.38
2023-09-07T20:03:57.910Z,15.77
2023-09-07T20:06:26.217Z,16.27
2023-09-07T20:08:53.587Z,18.10
2023-09-07T20:11:20.700Z,15.85
2023-09-07T20:13:48.677Z,16.88
2023-09-07T20:16:17.100Z,16.17
2023-09-07T20:18:47.111Z,16.20
2023-09-07T20:21:14.161Z,14.88
2023-09-07T20:23:41.741Z,17.48
2023-09-07T20:26:08.632Z,15.85
2023-09-07T20:28:44.286Z,16.80
2023-09-07T20:31:11.807Z,17.10
2023-09-07T20:33:38.888Z,27.95
2023-09-07T20:36:06.950Z,18.92
2023-09-07T20:38:34.765Z,21.73
2023-09-07T20:41:02.629Z,18.20
2023-09-07T20:43:29.694Z,21.00
2023-09-07T20:45:57.894Z,18.02
2023-09-07T20:48:25.005Z,19.50
2023-09-07T20:50:52.316Z,19.48
2023-09-07T20:53:19.664Z,20.50
2023-09-07T20:55:46.635Z,20.13
2023-09-07T20:58:13.706Z,20.83
2023-09-07T21:00:40.850Z,20.30
2023-09-07T21:03:08.037Z,19.52
2023-09-07T21:05:35.838Z,21.10
2023-09-07T21:08:04.478Z,21.58
2023-09-07T21:10:31.500Z,22.80
2023-09-07T21:12:59.149Z,22.80
2023-09-07T21:15:26.683Z,23.67
2023-09-07T21:17:54.864Z,18.63
2023-09-07T21:20:22.054Z,20.25
2023-09-07T21:22:49.024Z,19.45
2023-09-07T21:25:16.768Z,22.45
2023-09-07T21:27:45.202Z,19.63
2023-09-07T21:30:13.121Z,20.15
2023-09-07T21:32:40.130Z,19.88
2023-09-07T21:35:07.531Z,18.98
2023-09-07T21:37:34.518Z,24.40
2023-09-07T21:40:01.524Z,20.40
2023-09-07T21:42:28.558Z,23.00
2023-09-07T21:44:55.752Z,20.83
2023-09-07T21:47:29.755Z,21.70
2023-09-07T21:49:56.889Z,22.17
2023-09-07T21:52:24.910Z,20.67
2023-09-07T21:54:52.257Z,21.13
2023-09-07T21:57:24.735Z,21.27
2023-09-07T21:59:55.123Z,22.52
2023-09-07T22:02:26.156Z,25.30
2023-09-07T22:04:53.718Z,21.80
2023-09-07T22:07:20.869Z,24.33
2023-09-07T22:09:48.993Z,22.38
2023-09-07T22:12:16.010Z,23.83
2023-09-07T22:14:42.907Z,24.75
2023-09-07T22:17:09.947Z,23.08
2023-09-07T22:19:37.940Z,24.00
2023-09-07T22:22:05.474Z,25.85
2023-09-07T22:24:32.412Z,27.55
2023-09-07T22:26:59.447Z,24.55
2023-09-07T22:29:26.458Z,23.13
2023-09-07T22:31:53.404Z,24.95
2023-09-07T22:34:20.525Z,31.27
2023-09-07T22:36:47.498Z,27.30
2023-09-07T22:39:14.461Z,25.27
2023-09-07T22:41:41.477Z,26.42
2023-09-07T22:44:08.836Z,26.27
2023-09-07T22:46:35.859Z,25.80
2023-09-07T22:49:03.436Z,25.80
2023-09-07T22:51:30.616Z,27.35
2023-09-07T22:53:57.876Z,28.63
2023-09-07T22:56:25.479Z,26.45
2023-09-07T22:58:52.734Z,26.38
2023-09-07T23:01:20.035Z,29.45
2023-09-07T23:03:47.313Z,25.50
2023-09-07T23:06:14.603Z,30.67
2023-09-07T23:08:41.689Z,26.85
2023-09-07T23:11:08.836Z,26.00
2023-09-07T23:13:36.398Z,28.08
2023-09-07T23:16:04.412Z,29.38
2023-09-07T23:18:33.196Z,26.98
2023-09-07T23:21:00.504Z,30.98
2023-09-07T23:23:27.716Z,28.27
2023-09-07T23:25:55.622Z,28.33
2023-09-07T23:28:24.795Z,28.30
2023-09-07T23:30:55.190Z,29.65
2023-09-07T23:33:22.796Z,29.65
2023-09-07T23:35:53.417Z,29.33
2023-09-07T23:38:20.783Z,29.77
2023-09-07T23:40:48.163Z,31.55
2023-09-07T23:43:15.554Z,30.67
2023-09-07T23:45:42.960Z,31.00
2023-09-07T23:48:10.438Z,30.73
2023-09-07T23:50:37.923Z,31.33
2023-09-07T23:53:05.359Z,32.35
2023-09-07T23:55:33.092Z,30.05
2023-09-07T23:58:00.615Z,33.60
